createdAt,value
2022-10-03T00:01:48.050Z,14.50
2022-10-03T00:04:53.372Z,14.50
2022-10-03T00:07:51.034Z,14.50
2022-10-03T00:10:53.670Z,14.50
2022-10-03T00:13:49.529Z,14.50
2022-10-03T00:16:36.549Z,14.50
2022-10-03T00:19:30.103Z,14.60
2022-10-03T00:22:37.136Z,14.60
2022-10-03T00:25:46.744Z,14.60
2022-10-03T00:28:26.446Z,14.60
2022-10-03T00:31:13.425Z,14.60
2022-10-03T00:33:46.197Z,14.60
2022-10-03T00:36:38.210Z,14.70
2022-10-03T00:39:40.823Z,14.70
2022-10-03T00:42:44.794Z,14.70
2022-10-03T00:45:34.231Z,14.70
2022-10-03T00:48:23.753Z,14.70
2022-10-03T00:51:21.034Z,14.70
2022-10-03T00:54:04.793Z,14.70
2022-10-03T00:57:06.695Z,14.70
2022-10-03T01:00:09.027Z,14.70
2022-10-03T01:03:22.309Z,14.70
2022-10-03T01:06:30.854Z,14.70
2022-10-03T01:09:22.777Z,14.70
2022-10-03T01:12:02.786Z,14.70
2022-10-03T01:15:09.583Z,14.70
2022-10-03T01:18:03.189Z,14.70
2022-10-03T01:21:12.074Z,14.70
2022-10-03T01:24:20.416Z,14.70
2022-10-03T01:27:02.092Z,14.70
2022-10-03T01:30:14.082Z,14.70
2022-10-03T01:32:55.524Z,14.70
2022-10-03T01:36:12.774Z,14.70
2022-10-03T01:38:45.146Z,14.70
2022-10-03T01:41:34.476Z,14.70
2022-10-03T01:44:31.210Z,14.70
2022-10-03T01:48:02.232Z,14.70
2022-10-03T01:50:46.610Z,14.70
2022-10-03T01:53:38.528Z,14.70
2022-10-03T01:56:52.466Z,14.70
2022-10-03T01:59:37.337Z,14.70
2022-10-03T02:02:36.782Z,14.80
2022-10-03T02:05:17.241Z,14.80
2022-10-03T02:08:03.407Z,14.80
2022-10-03T02:10:59.426Z,14.70
2022-10-03T02:13:41.655Z,14.80
2022-10-03T02:16:58.302Z,14.70
2022-10-03T02:19:48.822Z,14.80
2022-10-03T02:22:58.643Z,14.80
2022-10-03T02:25:35.504Z,14.80
2022-10-03T02:28:31.014Z,14.80
2022-10-03T02:31:46.944Z,14.80
2022-10-03T02:34:42.521Z,14.90
2022-10-03T02:37:49.435Z,14.90
2022-10-03T02:40:45.794Z,14.90
2022-10-03T02:44:10.766Z,14.90
2022-10-03T02:47:11.560Z,14.90
2022-10-03T02:50:27.903Z,14.90
2022-10-03T02:53:22.860Z,14.90
2022-10-03T02:56:30.155Z,15.00
2022-10-03T02:59:45.864Z,15.00
2022-10-03T03:02:40.230Z,15.00
2022-10-03T03:05:36.863Z,15.00
2022-10-03T03:08:28.438Z,15.00
2022-10-03T03:11:49.340Z,15.00
2022-10-03T03:14:47.102Z,15.00
2022-10-03T03:17:36.640Z,15.00
2022-10-03T03:20:41.156Z,15.00
2022-10-03T03:23:39.072Z,15.00
2022-10-03T03:26:28.134Z,15.00
2022-10-03T03:29:26.392Z,15.00
2022-10-03T03:32:29.544Z,15.00
2022-10-03T03:35:29.516Z,15.10
2022-10-03T03:38:33.782Z,15.10
2022-10-03T03:41:30.398Z,15.10
2022-10-03T03:44:25.442Z,15.10
2022-10-03T03:47:43.301Z,15.10
2022-10-03T03:50:38.313Z,15.10
2022-10-03T03:53:27.223Z,15.10
2022-10-03T03:56:39.744Z,15.10
2022-10-03T03:59:37.295Z,15.00
2022-10-03T04:02:34.092Z,15.00
2022-10-03T04:05:48.519Z,15.00
2022-10-03T04:09:00.853Z,15.00
2022-10-03T04:11:53.506Z,15.00
2022-10-03T04:14:56.851Z,15.00
2022-10-03T04:18:15.668Z,15.00
2022-10-03T04:21:24.052Z,15.00
2022-10-03T04:24:38.543Z,15.00
2022-10-03T04:27:38.071Z,15.00
2022-10-03T04:30:20.759Z,15.00
2022-10-03T04:33:18.772Z,15.00
2022-10-03T04:36:22.364Z,15.00
2022-10-03T04:39:29.529Z,15.00
2022-10-03T04:42:04.101Z,15.00
2022-10-03T04:44:43.482Z,14.90
2022-10-03T04:47:40.597Z,14.90
2022-10-03T04:50:22.812Z,14.90
2022-10-03T04:53:07.026Z,14.90
2022-10-03T04:55:56.839Z,14.90
2022-10-03T04:58:46.824Z,14.90
2022-10-03T05:01:26.450Z,14.90
2022-10-03T05:04:25.123Z,14.90
2022-10-03T05:07:32.934Z,15.00
2022-10-03T05:10:30.889Z,15.00
2022-10-03T05:13:12.786Z,15.00
2022-10-03T05:16:11.175Z,15.00
2022-10-03T05:19:01.961Z,15.00
2022-10-03T05:21:56.498Z,15.00
2022-10-03T05:24:53.408Z,15.00
2022-10-03T05:27:45.532Z,15.00
2022-10-03T05:30:36.345Z,15.00
2022-10-03T05:33:15.362Z,15.00
2022-10-03T05:36:14.027Z,15.00
2022-10-03T05:39:31.246Z,15.00
2022-10-03T05:42:42.872Z,15.00
2022-10-03T05:45:31.825Z,15.00
2022-10-03T05:48:33.126Z,15.00
2022-10-03T05:51:37.149Z,15.00
2022-10-03T05:54:28.629Z,15.00
2022-10-03T05:57:50.192Z,14.80
2022-10-03T06:00:58.135Z,15.00
2022-10-03T06:04:05.982Z,15.00
2022-10-03T06:06:51.513Z,15.00
2022-10-03T06:09:27.103Z,15.00
2022-10-03T06:12:10.092Z,15.00
2022-10-03T06:15:22.344Z,15.00
2022-10-03T06:18:21.429Z,15.00
2022-10-03T06:21:41.921Z,15.00
2022-10-03T06:24:41.857Z,15.10
2022-10-03T06:27:56.105Z,15.10
2022-10-03T06:31:02.821Z,15.10
2022-10-03T06:34:20.057Z,15.10
2022-10-03T06:37:37.554Z,15.10
2022-10-03T06:40:42.154Z,15.10
2022-10-03T06:43:42.606Z,15.10
2022-10-03T06:46:30.605Z,15.20
2022-10-03T06:49:34.076Z,15.20
2022-10-03T06:52:31.541Z,15.20
2022-10-03T06:55:38.222Z,15.20
2022-10-03T06:58:51.200Z,15.20
2022-10-03T07:01:57.442Z,15.30
2022-10-03T07:05:01.711Z,15.30
2022-10-03T07:07:56.439Z,15.30
2022-10-03T07:10:41.751Z,15.30
2022-10-03T07:13:35.622Z,15.40
2022-10-03T07:16:36.364Z,15.40
2022-10-03T07:19:36.756Z,15.50
2022-10-03T07:23:08.296Z,15.50
2022-10-03T07:26:18.392Z,15.50
2022-10-03T07:29:27.626Z,15.60
2022-10-03T07:32:29.246Z,15.60
2022-10-03T07:35:55.015Z,15.70
2022-10-03T07:39:03.855Z,15.70
2022-10-03T07:41:48.243Z,15.80
2022-10-03T07:44:35.940Z,15.80
2022-10-03T07:47:59.576Z,15.90
2022-10-03T07:51:01.182Z,15.90
2022-10-03T07:54:14.210Z,16.00
2022-10-03T07:57:38.198Z,16.00
2022-10-03T08:00:16.961Z,16.00
2022-10-03T08:03:29.931Z,16.10
2022-10-03T08:06:14.347Z,16.10
2022-10-03T08:09:34.979Z,16.20
2022-10-03T08:12:35.141Z,16.20
2022-10-03T08:15:53.259Z,16.20
2022-10-03T08:18:33.129Z,16.20
2022-10-03T08:21:03.338Z,16.20
2022-10-03T08:24:12.078Z,16.20
2022-10-03T08:27:18.239Z,16.20
2022-10-03T08:30:39.939Z,16.20
2022-10-03T08:34:09.204Z,16.30
2022-10-03T08:37:30.067Z,16.30
2022-10-03T08:40:36.656Z,16.40
2022-10-03T08:43:56.696Z,16.40
2022-10-03T08:47:02.484Z,16.50
2022-10-03T08:50:09.759Z,16.50
2022-10-03T08:53:07.582Z,16.50
2022-10-03T08:55:48.389Z,16.60
2022-10-03T08:59:00.345Z,16.60
2022-10-03T09:01:58.005Z,16.60
2022-10-03T09:05:32.420Z,16.70
2022-10-03T09:08:50.410Z,16.70
2022-10-03T09:12:06.133Z,16.80
2022-10-03T09:15:12.149Z,16.90
2022-10-03T09:18:05.288Z,16.90
2022-10-03T09:21:28.640Z,17.00
2022-10-03T09:24:24.819Z,17.00
2022-10-03T09:27:36.044Z,17.10
2022-10-03T09:30:14.516Z,17.10
2022-10-03T09:33:32.397Z,17.10
2022-10-03T09:36:08.233Z,17.20
2022-10-03T09:38:58.225Z,17.30
2022-10-03T09:41:41.815Z,17.30
2022-10-03T09:44:48.434Z,17.30
2022-10-03T09:48:02.513Z,17.30
2022-10-03T09:51:21.697Z,17.40
2022-10-03T09:54:22.635Z,17.50
2022-10-03T09:57:25.016Z,17.50
2022-10-03T10:00:19.225Z,17.50
2022-10-03T10:03:13.182Z,17.60
2022-10-03T10:06:12.036Z,17.70
2022-10-03T10:09:12.636Z,17.80
2022-10-03T10:12:29.383Z,17.90
2022-10-03T10:15:18.861Z,18.00
2022-10-03T10:18:39.967Z,18.10
2022-10-03T10:22:05.053Z,18.10
2022-10-03T10:25:28.087Z,18.10
2022-10-03T10:28:49.861Z,18.20
2022-10-03T10:32:21.395Z,18.20
2022-10-03T10:35:28.916Z,18.10
2022-10-03T10:38:34.715Z,18.10
2022-10-03T10:42:25.397Z,18.10
2022-10-03T10:45:39.240Z,18.20
2022-10-03T10:49:03.911Z,18.20
2022-10-03T10:52:26.473Z,18.20
2022-10-03T10:55:47.534Z,18.20
2022-10-03T10:59:03.001Z,18.20
2022-10-03T11:02:23.894Z,18.20
2022-10-03T11:05:42.485Z,18.20
2022-10-03T11:08:46.113Z,18.20
2022-10-03T11:12:14.075Z,18.30
2022-10-03T11:15:19.910Z,18.30
2022-10-03T11:19:07.092Z,18.30
2022-10-03T11:22:16.002Z,18.40
2022-10-03T11:25:16.675Z,18.50
2022-10-03T11:28:19.304Z,18.60
2022-10-03T11:31:22.978Z,18.60
2022-10-03T11:34:34.773Z,18.70
2022-10-03T11:37:13.400Z,18.70
2022-10-03T11:40:02.538Z,18.80
2022-10-03T11:43:03.866Z,18.80
2022-10-03T11:45:37.251Z,18.80
2022-10-03T11:48:42.726Z,18.80
2022-10-03T11:51:18.652Z,18.80
2022-10-03T11:54:13.072Z,18.80
2022-10-03T11:56:54.489Z,18.80
2022-10-03T11:59:47.383Z,18.80
2022-10-03T12:02:39.350Z,18.80
2022-10-03T12:05:41.563Z,18.70
2022-10-03T12:08:48.635Z,18.70
2022-10-03T12:11:27.525Z,18.70
2022-10-03T12:14:11.419Z,18.50
2022-10-03T12:17:15.961Z,18.60
2022-10-03T12:20:17.672Z,18.60
2022-10-03T12:22:53.193Z,18.50
2022-10-03T12:25:37.375Z,18.50
2022-10-03T12:28:26.811Z,18.40
2022-10-03T12:31:02.499Z,18.30
2022-10-03T12:34:19.865Z,18.30
2022-10-03T12:37:36.378Z,18.30
2022-10-03T12:40:17.303Z,18.30
2022-10-03T12:43:24.484Z,18.20
2022-10-03T12:46:01.866Z,18.20
2022-10-03T12:48:49.886Z,18.30
2022-10-03T12:52:09.235Z,18.30
2022-10-03T12:54:49.499Z,18.40
2022-10-03T12:58:06.552Z,18.40
2022-10-03T13:00:57.541Z,18.50
2022-10-03T13:03:57.576Z,18.60
2022-10-03T13:07:05.124Z,18.60
2022-10-03T13:10:11.906Z,18.70
2022-10-03T13:13:16.089Z,18.70
2022-10-03T13:16:04.497Z,18.70
2022-10-03T13:18:56.034Z,18.70
2022-10-03T13:21:52.790Z,18.80
2022-10-03T13:24:43.985Z,18.80
2022-10-03T13:27:29.220Z,18.90
2022-10-03T13:30:24.551Z,19.00
2022-10-03T13:33:03.130Z,19.00
2022-10-03T13:35:59.654Z,19.10
2022-10-03T13:39:16.041Z,19.20
2022-10-03T13:42:14.257Z,19.20
2022-10-03T13:44:54.522Z,19.20
2022-10-03T13:47:53.895Z,19.20
2022-10-03T13:50:24.620Z,19.30
2022-10-03T13:53:13.434Z,19.30
2022-10-03T13:55:58.590Z,19.30
2022-10-03T13:58:58.746Z,19.30
2022-10-03T14:01:45.463Z,19.30
2022-10-03T14:04:35.606Z,19.30
2022-10-03T14:07:19.553Z,19.20
2022-10-03T14:10:28.752Z,19.20
2022-10-03T14:13:23.657Z,19.20
2022-10-03T14:16:06.551Z,19.20
2022-10-03T14:18:56.851Z,19.20
2022-10-03T14:21:49.725Z,19.20
2022-10-03T14:24:37.404Z,19.20
2022-10-03T14:27:40.221Z,19.20
2022-10-03T14:30:15.339Z,19.10
2022-10-03T14:33:14.390Z,19.20
2022-10-03T14:35:55.028Z,19.20
2022-10-03T14:39:02.359Z,19.20
2022-10-03T14:41:45.207Z,19.10
2022-10-03T14:44:37.863Z,19.10
2022-10-03T14:47:15.960Z,19.10
2022-10-03T14:49:59.284Z,19.10
2022-10-03T14:53:07.578Z,19.10
2022-10-03T14:55:52.679Z,19.10
2022-10-03T14:58:52.198Z,19.10
2022-10-03T15:01:26.093Z,19.20
2022-10-03T15:04:03.744Z,19.20
2022-10-03T15:06:55.876Z,19.20
2022-10-03T15:09:46.823Z,19.10
2022-10-03T15:12:27.002Z,19.20
2022-10-03T15:15:12.148Z,19.20
2022-10-03T15:18:03.976Z,19.20
2022-10-03T15:20:41.853Z,19.20
2022-10-03T15:23:26.039Z,19.20
2022-10-03T15:25:55.119Z,19.20
2022-10-03T15:28:30.649Z,19.20
2022-10-03T15:31:12.513Z,19.10
2022-10-03T15:33:40.816Z,19.10
2022-10-03T15:36:26.787Z,19.10
2022-10-03T15:39:00.953Z,19.10
2022-10-03T15:41:51.141Z,19.10
2022-10-03T15:44:39.210Z,19.00
2022-10-03T15:47:13.988Z,19.00
2022-10-03T15:50:33.591Z,19.00
2022-10-03T15:53:36.398Z,19.00
2022-10-03T15:56:15.403Z,19.00
2022-10-03T15:58:50.025Z,19.00
2022-10-03T16:01:25.096Z,18.90
2022-10-03T16:04:04.586Z,18.90
2022-10-03T16:06:49.462Z,18.90
2022-10-03T16:09:22.035Z,18.90
2022-10-03T16:11:58.794Z,18.80
2022-10-03T16:14:59.957Z,18.80
2022-10-03T16:17:51.093Z,18.80
2022-10-03T16:20:45.632Z,18.80
2022-10-03T16:23:26.719Z,18.80
2022-10-03T16:26:03.730Z,18.70
2022-10-03T16:28:50.883Z,18.70
2022-10-03T16:31:29.744Z,18.70
2022-10-03T16:34:03.666Z,18.70
2022-10-03T16:36:41.185Z,18.70
2022-10-03T16:39:33.794Z,19.50
2022-10-03T16:42:11.953Z,18.60
2022-10-03T16:44:56.125Z,18.50
2022-10-03T16:47:34.191Z,18.50
2022-10-03T16:50:20.698Z,18.50
2022-10-03T16:52:53.035Z,18.50
2022-10-03T16:55:39.155Z,18.40
2022-10-03T16:58:08.851Z,18.50
2022-10-03T17:01:09.172Z,18.40
2022-10-03T17:03:53.301Z,18.40
2022-10-03T17:06:36.041Z,18.40
2022-10-03T17:09:14.730Z,18.40
2022-10-03T17:11:48.207Z,18.30
2022-10-03T17:14:20.599Z,18.30
2022-10-03T17:17:03.028Z,18.30
2022-10-03T17:19:42.863Z,18.30
2022-10-03T17:22:18.153Z,18.20
2022-10-03T17:25:01.139Z,18.20
2022-10-03T17:27:40.542Z,18.20
2022-10-03T17:30:33.221Z,18.10
2022-10-03T17:33:18.500Z,18.10
2022-10-03T17:36:43.313Z,18.10
2022-10-03T17:39:34.478Z,18.10
2022-10-03T17:42:41.246Z,18.00
2022-10-03T17:45:47.781Z,18.00
2022-10-03T17:48:52.746Z,17.90
2022-10-03T17:51:35.167Z,17.90
2022-10-03T17:54:11.300Z,17.80
2022-10-03T17:56:49.316Z,17.80
2022-10-03T17:59:30.786Z,17.70
2022-10-03T18:02:13.206Z,17.70
2022-10-03T18:04:46.103Z,17.70
2022-10-03T18:07:19.890Z,17.60
2022-10-03T18:09:54.634Z,17.60
2022-10-03T18:12:42.217Z,17.60
2022-10-03T18:15:37.446Z,17.50
2022-10-03T18:18:29.752Z,17.50
2022-10-03T18:21:06.181Z,17.50
2022-10-03T18:24:24.966Z,17.50
2022-10-03T18:27:39.957Z,17.40
2022-10-03T18:30:16.938Z,17.50
2022-10-03T18:32:45.592Z,17.40
2022-10-03T18:35:17.937Z,17.40
2022-10-03T18:37:44.575Z,17.40
2022-10-03T18:40:29.548Z,17.30
2022-10-03T18:42:58.010Z,17.40
2022-10-03T18:45:43.131Z,17.30
2022-10-03T18:48:21.035Z,17.30
2022-10-03T18:51:13.984Z,17.30
2022-10-03T18:54:07.494Z,17.30
2022-10-03T18:56:36.676Z,17.30
2022-10-03T18:59:33.960Z,17.30
2022-10-03T19:02:03.509Z,17.20
2022-10-03T19:04:45.600Z,17.20
2022-10-03T19:07:22.232Z,17.00
2022-10-03T19:10:21.950Z,17.10
2022-10-03T19:13:23.226Z,17.10
2022-10-03T19:16:27.519Z,17.10
2022-10-03T19:19:02.129Z,17.00
2022-10-03T19:21:35.512Z,17.10
2022-10-03T19:24:14.937Z,17.00
2022-10-03T19:26:54.283Z,17.00
2022-10-03T19:29:24.636Z,17.00
2022-10-03T19:31:53.315Z,17.00
2022-10-03T19:34:34.362Z,17.00
2022-10-03T19:37:01.781Z,17.00
2022-10-03T19:39:32.485Z,16.90
2022-10-03T19:42:28.337Z,17.00
2022-10-03T19:44:58.148Z,17.00
2022-10-03T19:47:38.070Z,16.90
2022-10-03T19:50:28.217Z,17.00
2022-10-03T19:52:55.874Z,17.00
2022-10-03T19:55:37.206Z,17.00
2022-10-03T19:58:08.902Z,17.00
2022-10-03T20:00:48.399Z,16.90
2022-10-03T20:03:29.145Z,16.90
2022-10-03T20:06:26.524Z,16.80
2022-10-03T20:09:01.667Z,16.90
2022-10-03T20:11:51.792Z,16.90
2022-10-03T20:14:27.222Z,16.90
2022-10-03T20:17:13.949Z,16.90
2022-10-03T20:19:54.652Z,16.80
2022-10-03T20:22:27.370Z,16.80
2022-10-03T20:24:55.378Z,16.90
2022-10-03T20:27:45.945Z,16.90
2022-10-03T20:30:24.023Z,16.90
2022-10-03T20:32:53.875Z,16.90
2022-10-03T20:35:29.630Z,16.90
2022-10-03T20:38:40.464Z,16.90
2022-10-03T20:41:19.737Z,16.90
2022-10-03T20:44:27.851Z,16.90
2022-10-03T20:47:10.098Z,16.90
2022-10-03T20:49:52.876Z,16.90
2022-10-03T20:52:25.865Z,16.90
2022-10-03T20:54:59.666Z,16.90
2022-10-03T20:57:37.287Z,16.90
2022-10-03T21:00:25.413Z,16.90
2022-10-03T21:03:03.884Z,16.90
2022-10-03T21:05:43.391Z,16.90
2022-10-03T21:08:40.325Z,16.90
2022-10-03T21:11:39.472Z,16.90
2022-10-03T21:14:25.939Z,16.80
2022-10-03T21:16:54.859Z,16.80
2022-10-03T21:19:34.076Z,16.80
2022-10-03T21:22:07.294Z,16.80
2022-10-03T21:24:47.649Z,16.40
2022-10-03T21:27:18.306Z,16.70
2022-10-03T21:29:58.764Z,16.70
2022-10-03T21:33:17.480Z,16.80
2022-10-03T21:35:44.929Z,16.80
2022-10-03T21:38:27.406Z,16.70
2022-10-03T21:41:17.231Z,16.80
2022-10-03T21:44:01.798Z,16.80
2022-10-03T21:46:42.434Z,16.80
2022-10-03T21:49:40.265Z,16.90
2022-10-03T21:52:44.624Z,16.80
2022-10-03T21:55:52.571Z,16.80
2022-10-03T21:58:51.232Z,16.80
2022-10-03T22:01:38.470Z,16.80
2022-10-03T22:04:33.998Z,16.80
2022-10-03T22:07:14.957Z,16.70
2022-10-03T22:09:53.725Z,16.70
2022-10-03T22:12:21.713Z,16.60
2022-10-03T22:15:08.540Z,16.70
2022-10-03T22:18:05.240Z,16.70
2022-10-03T22:20:34.850Z,16.70
2022-10-03T22:23:44.261Z,16.70
2022-10-03T22:26:30.419Z,16.70
2022-10-03T22:29:22.984Z,16.70
2022-10-03T22:32:31.203Z,16.70
2022-10-03T22:35:47.627Z,16.60
2022-10-03T22:38:17.076Z,16.70
2022-10-03T22:40:47.221Z,16.70
2022-10-03T22:43:15.488Z,16.70
2022-10-03T22:45:50.068Z,16.70
2022-10-03T22:48:27.953Z,16.70
2022-10-03T22:50:56.296Z,16.60
2022-10-03T22:53:31.122Z,16.70
2022-10-03T22:56:00.163Z,16.70
2022-10-03T22:58:30.475Z,16.60
2022-10-03T23:01:00.939Z,16.70
2022-10-03T23:03:34.439Z,16.60
2022-10-03T23:06:37.632Z,16.60
2022-10-03T23:09:31.639Z,16.60
2022-10-03T23:11:58.852Z,16.60
2022-10-03T23:14:37.586Z,16.60
2022-10-03T23:18:07.156Z,16.60
2022-10-03T23:21:08.467Z,16.60
2022-10-03T23:23:50.546Z,16.60
2022-10-03T23:26:43.605Z,16.60
2022-10-03T23:29:16.770Z,16.60
2022-10-03T23:32:09.460Z,16.60
2022-10-03T23:34:38.870Z,16.70
2022-10-03T23:37:11.540Z,16.60
2022-10-03T23:39:56.067Z,16.70
2022-10-03T23:42:47.658Z,16.70
2022-10-03T23:45:20.267Z,16.70
2022-10-03T23:48:10.202Z,17.10
2022-10-03T23:50:49.748Z,16.70
2022-10-03T23:53:46.805Z,16.70
2022-10-03T23:56:22.816Z,16.70
2022-10-03T23:59:14.682Z,16.70
